sensor_id;sensor_type;location;lat;lon;timestamp;P1;durP1;ratioP1;P2;durP2;ratioP2
9413;SDS011;4746;35.664;139.738;2022-12-29T00:01:04;3.20;;;2.97;;
9413;SDS011;4746;35.664;139.738;2022-12-29T00:03:31;3.67;;;3.37;;
9413;SDS011;4746;35.664;139.738;2022-12-29T00:06:00;3.53;;;3.20;;
9413;SDS011;4746;35.664;139.738;2022-12-29T00:08:28;3.53;;;3.23;;
9413;SDS011;4746;35.664;139.738;2022-12-29T00:11:08;3.90;;;3.53;;
9413;SDS011;4746;35.664;139.738;2022-12-29T00:13:44;3.83;;;3.53;;
9413;SDS011;4746;35.664;139.738;2022-12-29T00:16:30;3.77;;;3.47;;
9413;SDS011;4746;35.664;139.738;2022-12-29T00:19:00;3.73;;;3.27;;
9413;SDS011;4746;35.664;139.738;2022-12-29T00:21:28;3.17;;;2.97;;
9413;SDS011;4746;35.664;139.738;2022-12-29T00:24:19;2.90;;;2.70;;
9413;SDS011;4746;35.664;139.738;2022-12-29T00:29:49;3.03;;;2.83;;
9413;SDS011;4746;35.664;139.738;2022-12-29T00:32:34;3.53;;;2.87;;
9413;SDS011;4746;35.664;139.738;2022-12-29T00:35:28;2.90;;;2.70;;
9413;SDS011;4746;35.664;139.738;2022-12-29T00:38:11;4.17;;;3.17;;
9413;SDS011;4746;35.664;139.738;2022-12-29T00:40:58;2.63;;;2.43;;
9413;SDS011;4746;35.664;139.738;2022-12-29T00:43:43;3.17;;;2.10;;
9413;SDS011;4746;35.664;139.738;2022-12-29T00:46:29;3.20;;;2.90;;
9413;SDS011;4746;35.664;139.738;2022-12-29T00:48:59;4.07;;;2.70;;
9413;SDS011;4746;35.664;139.738;2022-12-29T00:51:46;2.97;;;2.67;;
9413;SDS011;4746;35.664;139.738;2022-12-29T00:54:15;2.67;;;2.47;;
9413;SDS011;4746;35.664;139.738;2022-12-29T00:56:47;2.63;;;2.43;;
9413;SDS011;4746;35.664;139.738;2022-12-29T00:59:17;2.90;;;2.60;;
9413;SDS011;4746;35.664;139.738;2022-12-29T01:01:46;2.90;;;2.70;;
9413;SDS011;4746;35.664;139.738;2022-12-29T01:04:14;2.90;;;2.70;;
9413;SDS011;4746;35.664;139.738;2022-12-29T01:06:43;2.90;;;2.60;;
9413;SDS011;4746;35.664;139.738;2022-12-29T01:09:10;2.70;;;2.50;;
9413;SDS011;4746;35.664;139.738;2022-12-29T01:11:57;2.90;;;2.70;;
9413;SDS011;4746;35.664;139.738;2022-12-29T01:14:25;2.90;;;2.60;;
9413;SDS011;4746;35.664;139.738;2022-12-29T01:16:54;2.07;;;1.87;;
9413;SDS011;4746;35.664;139.738;2022-12-29T01:19:22;2.97;;;2.53;;
9413;SDS011;4746;35.664;139.738;2022-12-29T01:21:50;3.30;;;3.03;;
9413;SDS011;4746;35.664;139.738;2022-12-29T01:24:19;2.70;;;2.50;;
9413;SDS011;4746;35.664;139.738;2022-12-29T01:26:48;2.60;;;2.40;;
9413;SDS011;4746;35.664;139.738;2022-12-29T01:29:16;2.80;;;2.60;;
9413;SDS011;4746;35.664;139.738;2022-12-29T01:31:44;2.60;;;2.40;;
9413;SDS011;4746;35.664;139.738;2022-12-29T01:34:12;2.90;;;2.70;;
9413;SDS011;4746;35.664;139.738;2022-12-29T01:36:40;3.63;;;2.93;;
9413;SDS011;4746;35.664;139.738;2022-12-29T01:39:07;3.10;;;2.90;;
9413;SDS011;4746;35.664;139.738;2022-12-29T01:41:35;2.70;;;2.50;;
9413;SDS011;4746;35.664;139.738;2022-12-29T01:44:02;3.10;;;2.80;;
9413;SDS011;4746;35.664;139.738;2022-12-29T01:50:11;3.13;;;2.83;;
9413;SDS011;4746;35.664;139.738;2022-12-29T01:55:40;3.00;;;2.70;;
9413;SDS011;4746;35.664;139.738;2022-12-29T01:58:14;3.33;;;2.70;;
9413;SDS011;4746;35.664;139.738;2022-12-29T02:00:46;2.93;;;2.73;;
9413;SDS011;4746;35.664;139.738;2022-12-29T02:03:14;3.37;;;2.87;;
9413;SDS011;4746;35.664;139.738;2022-12-29T02:09:07;3.00;;;2.80;;
9413;SDS011;4746;35.664;139.738;2022-12-29T02:11:34;3.30;;;2.90;;
9413;SDS011;4746;35.664;139.738;2022-12-29T02:14:10;2.77;;;2.57;;
9413;SDS011;4746;35.664;139.738;2022-12-29T02:22:54;2.53;;;2.33;;
9413;SDS011;4746;35.664;139.738;2022-12-29T02:28:53;3.13;;;2.83;;
9413;SDS011;4746;35.664;139.738;2022-12-29T02:31:46;2.80;;;2.50;;
9413;SDS011;4746;35.664;139.738;2022-12-29T02:41:11;3.10;;;2.83;;
9413;SDS011;4746;35.664;139.738;2022-12-29T02:46:51;1.63;;;1.53;;
9413;SDS011;4746;35.664;139.738;2022-12-29T02:49:50;2.00;;;1.90;;
9413;SDS011;4746;35.664;139.738;2022-12-29T02:52:27;2.40;;;2.20;;
9413;SDS011;4746;35.664;139.738;2022-12-29T02:55:03;2.70;;;2.50;;
9413;SDS011;4746;35.664;139.738;2022-12-29T02:57:33;2.40;;;2.20;;
9413;SDS011;4746;35.664;139.738;2022-12-29T03:03:06;1.90;;;1.80;;
9413;SDS011;4746;35.664;139.738;2022-12-29T03:15:18;2.80;;;2.60;;
9413;SDS011;4746;35.664;139.738;2022-12-29T03:18:25;2.40;;;2.20;;
9413;SDS011;4746;35.664;139.738;2022-12-29T03:21:26;2.37;;;2.17;;
9413;SDS011;4746;35.664;139.738;2022-12-29T03:24:26;2.60;;;2.40;;
9413;SDS011;4746;35.664;139.738;2022-12-29T03:27:05;2.33;;;2.00;;
9413;SDS011;4746;35.664;139.738;2022-12-29T03:29:38;2.33;;;2.00;;
9413;SDS011;4746;35.664;139.738;2022-12-29T03:32:12;2.50;;;2.30;;
9413;SDS011;4746;35.664;139.738;2022-12-29T03:34:42;1.97;;;1.87;;
9413;SDS011;4746;35.664;139.738;2022-12-29T03:37:12;2.50;;;2.30;;
9413;SDS011;4746;35.664;139.738;2022-12-29T03:39:46;2.77;;;2.57;;
9413;SDS011;4746;35.664;139.738;2022-12-29T03:42:15;2.00;;;1.87;;
9413;SDS011;4746;35.664;139.738;2022-12-29T03:44:49;1.90;;;1.70;;
9413;SDS011;4746;35.664;139.738;2022-12-29T03:47:22;2.20;;;2.00;;
9413;SDS011;4746;35.664;139.738;2022-12-29T03:49:51;2.47;;;1.97;;
9413;SDS011;4746;35.664;139.738;2022-12-29T03:52:19;2.57;;;1.93;;
9413;SDS011;4746;35.664;139.738;2022-12-29T03:54:46;2.53;;;2.33;;
9413;SDS011;4746;35.664;139.738;2022-12-29T03:57:14;2.03;;;1.80;;
9413;SDS011;4746;35.664;139.738;2022-12-29T03:59:41;1.80;;;1.70;;
9413;SDS011;4746;35.664;139.738;2022-12-29T04:02:09;2.08;;;1.85;;
9413;SDS011;4746;35.664;139.738;2022-12-29T04:04:36;2.00;;;1.75;;
9413;SDS011;4746;35.664;139.738;2022-12-29T04:07:04;2.35;;;2.15;;
9413;SDS011;4746;35.664;139.738;2022-12-29T04:09:31;2.13;;;1.80;;
9413;SDS011;4746;35.664;139.738;2022-12-29T04:11:59;2.53;;;2.15;;
9413;SDS011;4746;35.664;139.738;2022-12-29T04:14:27;2.47;;;2.22;;
9413;SDS011;4746;35.664;139.738;2022-12-29T04:16:54;2.10;;;1.90;;
9413;SDS011;4746;35.664;139.738;2022-12-29T04:19:22;2.08;;;1.88;;
9413;SDS011;4746;35.664;139.738;2022-12-29T04:21:49;2.25;;;2.08;;
9413;SDS011;4746;35.664;139.738;2022-12-29T04:24:17;2.47;;;2.28;;
9413;SDS011;4746;35.664;139.738;2022-12-29T04:26:44;2.13;;;2.00;;
9413;SDS011;4746;35.664;139.738;2022-12-29T04:29:12;2.20;;;2.00;;
9413;SDS011;4746;35.664;139.738;2022-12-29T04:31:39;1.98;;;1.88;;
9413;SDS011;4746;35.664;139.738;2022-12-29T04:34:07;2.00;;;1.90;;
9413;SDS011;4746;35.664;139.738;2022-12-29T04:36:35;2.30;;;2.10;;
9413;SDS011;4746;35.664;139.738;2022-12-29T04:39:05;2.30;;;2.00;;
9413;SDS011;4746;35.664;139.738;2022-12-29T04:41:33;2.90;;;2.70;;
9413;SDS011;4746;35.664;139.738;2022-12-29T04:44:02;2.55;;;2.33;;
9413;SDS011;4746;35.664;139.738;2022-12-29T04:46:30;2.15;;;2.05;;
9413;SDS011;4746;35.664;139.738;2022-12-29T04:48:58;2.33;;;2.13;;
9413;SDS011;4746;35.664;139.738;2022-12-29T04:51:29;3.17;;;2.35;;
9413;SDS011;4746;35.664;139.738;2022-12-29T04:53:57;3.55;;;2.13;;
9413;SDS011;4746;35.664;139.738;2022-12-29T04:56:26;6.72;;;2.80;;
9413;SDS011;4746;35.664;139.738;2022-12-29T04:58:53;6.22;;;3.10;;
9413;SDS011;4746;35.664;139.738;2022-12-29T05:01:21;8.30;;;2.95;;
9413;SDS011;4746;35.664;139.738;2022-12-29T05:03:49;2.83;;;2.42;;
9413;SDS011;4746;35.664;139.738;2022-12-29T05:06:17;2.92;;;2.72;;
9413;SDS011;4746;35.664;139.738;2022-12-29T05:08:45;2.88;;;2.53;;
9413;SDS011;4746;35.664;139.738;2022-12-29T05:11:12;2.67;;;2.47;;
9413;SDS011;4746;35.664;139.738;2022-12-29T05:13:40;3.35;;;2.97;;
9413;SDS011;4746;35.664;139.738;2022-12-29T05:16:12;2.90;;;2.63;;
9413;SDS011;4746;35.664;139.738;2022-12-29T05:18:39;2.35;;;2.17;;
9413;SDS011;4746;35.664;139.738;2022-12-29T05:21:07;3.05;;;2.40;;
9413;SDS011;4746;35.664;139.738;2022-12-29T05:23:34;2.35;;;2.15;;
9413;SDS011;4746;35.664;139.738;2022-12-29T05:26:02;2.88;;;2.53;;
9413;SDS011;4746;35.664;139.738;2022-12-29T05:28:30;3.70;;;2.70;;
9413;SDS011;4746;35.664;139.738;2022-12-29T05:30:57;2.65;;;2.45;;
9413;SDS011;4746;35.664;139.738;2022-12-29T05:33:27;2.83;;;2.53;;
9413;SDS011;4746;35.664;139.738;2022-12-29T05:35:54;2.47;;;2.28;;
9413;SDS011;4746;35.664;139.738;2022-12-29T05:38:22;2.88;;;2.60;;
9413;SDS011;4746;35.664;139.738;2022-12-29T05:40:50;2.60;;;2.40;;
9413;SDS011;4746;35.664;139.738;2022-12-29T05:43:18;2.50;;;2.30;;
9413;SDS011;4746;35.664;139.738;2022-12-29T05:45:48;3.58;;;2.75;;
9413;SDS011;4746;35.664;139.738;2022-12-29T05:48:15;3.22;;;2.95;;
9413;SDS011;4746;35.664;139.738;2022-12-29T05:50:46;2.72;;;2.53;;
9413;SDS011;4746;35.664;139.738;2022-12-29T05:53:16;2.75;;;2.55;;
9413;SDS011;4746;35.664;139.738;2022-12-29T05:55:46;2.70;;;2.50;;
9413;SDS011;4746;35.664;139.738;2022-12-29T05:58:15;3.25;;;2.90;;
9413;SDS011;4746;35.664;139.738;2022-12-29T06:00:43;3.20;;;2.70;;
9413;SDS011;4746;35.664;139.738;2022-12-29T06:03:11;3.78;;;3.47;;
9413;SDS011;4746;35.664;139.738;2022-12-29T06:05:39;3.20;;;2.75;;
9413;SDS011;4746;35.664;139.738;2022-12-29T06:08:06;3.30;;;3.08;;
9413;SDS011;4746;35.664;139.738;2022-12-29T06:10:34;3.17;;;2.95;;
9413;SDS011;4746;35.664;139.738;2022-12-29T06:13:01;4.20;;;3.15;;
9413;SDS011;4746;35.664;139.738;2022-12-29T06:15:31;3.35;;;2.92;;
9413;SDS011;4746;35.664;139.738;2022-12-29T06:17:59;4.28;;;3.25;;
9413;SDS011;4746;35.664;139.738;2022-12-29T06:20:27;3.25;;;2.95;;
9413;SDS011;4746;35.664;139.738;2022-12-29T06:22:54;3.83;;;3.45;;
9413;SDS011;4746;35.664;139.738;2022-12-29T06:25:22;3.55;;;3.25;;
9413;SDS011;4746;35.664;139.738;2022-12-29T06:27:49;4.63;;;3.67;;
9413;SDS011;4746;35.664;139.738;2022-12-29T06:30:17;3.75;;;3.55;;
9413;SDS011;4746;35.664;139.738;2022-12-29T06:32:44;5.25;;;3.55;;
9413;SDS011;4746;35.664;139.738;2022-12-29T06:35:12;3.45;;;3.15;;
9413;SDS011;4746;35.664;139.738;2022-12-29T06:37:40;4.45;;;3.55;;
9413;SDS011;4746;35.664;139.738;2022-12-29T06:40:08;4.07;;;3.72;;
9413;SDS011;4746;35.664;139.738;2022-12-29T06:42:37;5.65;;;3.50;;
9413;SDS011;4746;35.664;139.738;2022-12-29T06:45:04;3.88;;;3.58;;
9413;SDS011;4746;35.664;139.738;2022-12-29T06:47:33;4.75;;;4.00;;
9413;SDS011;4746;35.664;139.738;2022-12-29T06:50:02;4.22;;;3.92;;
9413;SDS011;4746;35.664;139.738;2022-12-29T06:52:30;4.63;;;4.18;;
9413;SDS011;4746;35.664;139.738;2022-12-29T06:54:59;4.57;;;3.30;;
9413;SDS011;4746;35.664;139.738;2022-12-29T06:57:27;5.03;;;3.92;;
9413;SDS011;4746;35.664;139.738;2022-12-29T06:59:55;5.18;;;3.90;;
9413;SDS011;4746;35.664;139.738;2022-12-29T07:02:22;5.63;;;4.22;;
9413;SDS011;4746;35.664;139.738;2022-12-29T07:04:51;7.60;;;4.30;;
9413;SDS011;4746;35.664;139.738;2022-12-29T07:07:19;5.00;;;4.38;;
9413;SDS011;4746;35.664;139.738;2022-12-29T07:09:47;7.60;;;4.30;;
9413;SDS011;4746;35.664;139.738;2022-12-29T07:12:14;7.32;;;4.80;;
9413;SDS011;4746;35.664;139.738;2022-12-29T07:14:42;7.47;;;4.05;;
9413;SDS011;4746;35.664;139.738;2022-12-29T07:17:09;5.57;;;4.38;;
9413;SDS011;4746;35.664;139.738;2022-12-29T07:19:37;6.88;;;4.88;;
9413;SDS011;4746;35.664;139.738;2022-12-29T07:22:04;4.45;;;4.15;;
9413;SDS011;4746;35.664;139.738;2022-12-29T07:24:32;5.18;;;4.68;;
9413;SDS011;4746;35.664;139.738;2022-12-29T07:26:59;5.85;;;4.28;;
9413;SDS011;4746;35.664;139.738;2022-12-29T07:29:27;4.55;;;4.13;;
9413;SDS011;4746;35.664;139.738;2022-12-29T07:31:54;4.70;;;4.05;;
9413;SDS011;4746;35.664;139.738;2022-12-29T07:34:22;4.83;;;4.30;;
9413;SDS011;4746;35.664;139.738;2022-12-29T07:36:49;4.57;;;4.07;;
9413;SDS011;4746;35.664;139.738;2022-12-29T07:39:17;4.83;;;4.30;;
9413;SDS011;4746;35.664;139.738;2022-12-29T07:41:44;4.03;;;3.73;;
9413;SDS011;4746;35.664;139.738;2022-12-29T07:44:12;4.47;;;3.70;;
9413;SDS011;4746;35.664;139.738;2022-12-29T07:46:39;4.07;;;3.43;;
9413;SDS011;4746;35.664;139.738;2022-12-29T07:49:08;4.60;;;3.47;;
9413;SDS011;4746;35.664;139.738;2022-12-29T07:51:35;3.67;;;3.37;;
9413;SDS011;4746;35.664;139.738;2022-12-29T07:54:03;5.77;;;3.53;;
9413;SDS011;4746;35.664;139.738;2022-12-29T07:56:30;4.57;;;3.13;;
9413;SDS011;4746;35.664;139.738;2022-12-29T07:58:58;3.87;;;3.57;;
9413;SDS011;4746;35.664;139.738;2022-12-29T08:01:25;6.27;;;3.60;;
9413;SDS011;4746;35.664;139.738;2022-12-29T08:03:53;4.33;;;3.13;;
9413;SDS011;4746;35.664;139.738;2022-12-29T08:06:23;4.77;;;3.40;;
9413;SDS011;4746;35.664;139.738;2022-12-29T08:08:50;3.50;;;3.30;;
9413;SDS011;4746;35.664;139.738;2022-12-29T08:11:18;3.40;;;3.07;;
9413;SDS011;4746;35.664;139.738;2022-12-29T08:13:45;5.50;;;3.30;;
9413;SDS011;4746;35.664;139.738;2022-12-29T08:16:13;4.13;;;3.73;;
9413;SDS011;4746;35.664;139.738;2022-12-29T08:18:41;4.17;;;3.60;;
9413;SDS011;4746;35.664;139.738;2022-12-29T08:21:09;5.23;;;3.37;;
9413;SDS011;4746;35.664;139.738;2022-12-29T08:23:36;4.33;;;3.87;;
9413;SDS011;4746;35.664;139.738;2022-12-29T08:26:04;4.50;;;3.60;;
9413;SDS011;4746;35.664;139.738;2022-12-29T08:28:32;3.87;;;3.47;;
9413;SDS011;4746;35.664;139.738;2022-12-29T08:31:00;4.70;;;3.40;;
9413;SDS011;4746;35.664;139.738;2022-12-29T08:33:29;4.03;;;3.60;;
9413;SDS011;4746;35.664;139.738;2022-12-29T08:36:00;6.93;;;4.20;;
9413;SDS011;4746;35.664;139.738;2022-12-29T08:38:32;5.73;;;3.80;;
9413;SDS011;4746;35.664;139.738;2022-12-29T08:41:00;4.40;;;4.00;;
9413;SDS011;4746;35.664;139.738;2022-12-29T08:43:29;4.30;;;3.90;;
9413;SDS011;4746;35.664;139.738;2022-12-29T08:45:57;4.83;;;4.30;;
9413;SDS011;4746;35.664;139.738;2022-12-29T08:48:25;4.50;;;4.10;;
9413;SDS011;4746;35.664;139.738;2022-12-29T08:50:53;5.13;;;4.63;;
9413;SDS011;4746;35.664;139.738;2022-12-29T08:53:22;5.53;;;4.90;;
9413;SDS011;4746;35.664;139.738;2022-12-29T08:55:54;5.93;;;5.20;;
9413;SDS011;4746;35.664;139.738;2022-12-29T08:58:27;5.97;;;5.37;;
9413;SDS011;4746;35.664;139.738;2022-12-29T09:00:55;5.73;;;4.40;;
9413;SDS011;4746;35.664;139.738;2022-12-29T09:03:24;3.27;;;2.97;;
9413;SDS011;4746;35.664;139.738;2022-12-29T09:05:53;2.27;;;2.17;;
9413;SDS011;4746;35.664;139.738;2022-12-29T09:08:21;3.00;;;2.70;;
9413;SDS011;4746;35.664;139.738;2022-12-29T09:10:49;2.37;;;2.17;;
9413;SDS011;4746;35.664;139.738;2022-12-29T09:13:17;2.27;;;1.90;;
9413;SDS011;4746;35.664;139.738;2022-12-29T09:15:45;2.77;;;1.83;;
9413;SDS011;4746;35.664;139.738;2022-12-29T09:18:12;4.37;;;1.53;;
9413;SDS011;4746;35.664;139.738;2022-12-29T09:20:40;3.83;;;1.83;;
9413;SDS011;4746;35.664;139.738;2022-12-29T09:23:08;1.40;;;1.30;;
9413;SDS011;4746;35.664;139.738;2022-12-29T09:25:35;1.43;;;1.30;;
9413;SDS011;4746;35.664;139.738;2022-12-29T09:28:03;1.90;;;1.70;;
9413;SDS011;4746;35.664;139.738;2022-12-29T09:30:33;1.53;;;1.43;;
9413;SDS011;4746;35.664;139.738;2022-12-29T09:33:00;1.83;;;1.73;;
9413;SDS011;4746;35.664;139.738;2022-12-29T09:35:29;1.93;;;1.40;;
9413;SDS011;4746;35.664;139.738;2022-12-29T09:37:56;2.40;;;1.73;;
9413;SDS011;4746;35.664;139.738;2022-12-29T09:40:26;5.37;;;1.60;;
9413;SDS011;4746;35.664;139.738;2022-12-29T09:46:17;1.47;;;1.27;;
9413;SDS011;4746;35.664;139.738;2022-12-29T09:48:50;1.70;;;1.60;;
9413;SDS011;4746;35.664;139.738;2022-12-29T09:51:51;1.97;;;1.73;;
9413;SDS011;4746;35.664;139.738;2022-12-29T09:54:35;1.90;;;1.80;;
9413;SDS011;4746;35.664;139.738;2022-12-29T09:57:47;2.20;;;1.70;;
9413;SDS011;4746;35.664;139.738;2022-12-29T10:00:21;1.53;;;1.40;;
9413;SDS011;4746;35.664;139.738;2022-12-29T10:03:12;1.53;;;1.27;;
9413;SDS011;4746;35.664;139.738;2022-12-29T10:05:48;1.60;;;1.50;;
9413;SDS011;4746;35.664;139.738;2022-12-29T10:18:32;2.53;;;2.00;;
9413;SDS011;4746;35.664;139.738;2022-12-29T10:21:58;3.00;;;2.13;;
9413;SDS011;4746;35.664;139.738;2022-12-29T10:25:25;2.57;;;2.10;;
9413;SDS011;4746;35.664;139.738;2022-12-29T10:27:55;2.50;;;2.30;;
9413;SDS011;4746;35.664;139.738;2022-12-29T10:30:30;2.80;;;2.27;;
9413;SDS011;4746;35.664;139.738;2022-12-29T10:33:04;2.70;;;2.17;;
9413;SDS011;4746;35.664;139.738;2022-12-29T10:35:41;2.30;;;1.80;;
9413;SDS011;4746;35.664;139.738;2022-12-29T10:38:30;2.23;;;2.03;;
9413;SDS011;4746;35.664;139.738;2022-12-29T10:41:16;1.93;;;1.83;;
9413;SDS011;4746;35.664;139.738;2022-12-29T10:44:02;2.47;;;2.07;;
9413;SDS011;4746;35.664;139.738;2022-12-29T10:46:33;1.83;;;1.73;;
9413;SDS011;4746;35.664;139.738;2022-12-29T10:49:04;2.67;;;2.03;;
9413;SDS011;4746;35.664;139.738;2022-12-29T10:51:41;2.30;;;2.10;;
9413;SDS011;4746;35.664;139.738;2022-12-29T10:54:25;3.13;;;2.77;;
9413;SDS011;4746;35.664;139.738;2022-12-29T10:57:05;3.00;;;2.47;;
9413;SDS011;4746;35.664;139.738;2022-12-29T10:59:41;2.00;;;1.80;;
9413;SDS011;4746;35.664;139.738;2022-12-29T11:04:42;2.27;;;2.17;;
9413;SDS011;4746;35.664;139.738;2022-12-29T11:07:50;2.37;;;2.03;;
9413;SDS011;4746;35.664;139.738;2022-12-29T11:10:29;2.47;;;1.93;;
9413;SDS011;4746;35.664;139.738;2022-12-29T11:18:26;1.83;;;1.73;;
9413;SDS011;4746;35.664;139.738;2022-12-29T11:21:03;1.80;;;1.70;;
9413;SDS011;4746;35.664;139.738;2022-12-29T11:23:57;1.73;;;1.63;;
9413;SDS011;4746;35.664;139.738;2022-12-29T11:26:31;2.47;;;2.27;;
9413;SDS011;4746;35.664;139.738;2022-12-29T11:31:45;2.07;;;1.93;;
9413;SDS011;4746;35.664;139.738;2022-12-29T11:34:41;3.20;;;1.87;;
9413;SDS011;4746;35.664;139.738;2022-12-29T11:42:51;2.30;;;2.10;;
9413;SDS011;4746;35.664;139.738;2022-12-29T11:45:31;2.20;;;2.00;;
9413;SDS011;4746;35.664;139.738;2022-12-29T11:50:48;2.27;;;2.07;;
9413;SDS011;4746;35.664;139.738;2022-12-29T11:53:33;2.53;;;2.33;;
9413;SDS011;4746;35.664;139.738;2022-12-29T11:56:07;2.07;;;1.83;;
9413;SDS011;4746;35.664;139.738;2022-12-29T12:01:56;2.80;;;2.50;;
9413;SDS011;4746;35.664;139.738;2022-12-29T12:04:27;2.43;;;2.20;;
9413;SDS011;4746;35.664;139.738;2022-12-29T12:07:14;2.20;;;1.93;;
9413;SDS011;4746;35.664;139.738;2022-12-29T12:09:58;2.13;;;1.93;;
9413;SDS011;4746;35.664;139.738;2022-12-29T12:15:05;2.43;;;2.20;;
9413;SDS011;4746;35.664;139.738;2022-12-29T12:26:21;3.07;;;1.77;;
9413;SDS011;4746;35.664;139.738;2022-12-29T12:29:10;1.77;;;1.67;;
9413;SDS011;4746;35.664;139.738;2022-12-29T12:34:50;2.13;;;1.70;;
9413;SDS011;4746;35.664;139.738;2022-12-29T12:37:32;1.80;;;1.70;;
9413;SDS011;4746;35.664;139.738;2022-12-29T12:40:28;1.67;;;1.57;;
9413;SDS011;4746;35.664;139.738;2022-12-29T12:43:58;1.53;;;1.40;;
9413;SDS011;4746;35.664;139.738;2022-12-29T12:52:10;3.40;;;1.50;;
9413;SDS011;4746;35.664;139.738;2022-12-29T12:55:18;1.20;;;1.20;;
9413;SDS011;4746;35.664;139.738;2022-12-29T13:16:34;1.43;;;1.33;;
9413;SDS011;4746;35.664;139.738;2022-12-29T13:22:10;1.40;;;1.30;;
9413;SDS011;4746;35.664;139.738;2022-12-29T13:31:18;1.63;;;1.30;;
9413;SDS011;4746;35.664;139.738;2022-12-29T13:37:44;1.37;;;1.27;;
9413;SDS011;4746;35.664;139.738;2022-12-29T13:40:28;1.30;;;1.30;;
9413;SDS011;4746;35.664;139.738;2022-12-29T13:43:04;1.50;;;1.40;;
9413;SDS011;4746;35.664;139.738;2022-12-29T13:45:33;1.20;;;1.10;;
9413;SDS011;4746;35.664;139.738;2022-12-29T13:48:20;1.60;;;1.50;;
9413;SDS011;4746;35.664;139.738;2022-12-29T13:51:28;2.67;;;1.70;;
9413;SDS011;4746;35.664;139.738;2022-12-29T13:54:00;1.57;;;1.47;;
9413;SDS011;4746;35.664;139.738;2022-12-29T13:56:51;1.20;;;1.20;;
9413;SDS011;4746;35.664;139.738;2022-12-29T14:05:35;1.27;;;1.13;;
9413;SDS011;4746;35.664;139.738;2022-12-29T14:08:04;1.53;;;1.40;;
9413;SDS011;4746;35.664;139.738;2022-12-29T14:10:49;1.40;;;1.30;;
9413;SDS011;4746;35.664;139.738;2022-12-29T14:13:22;1.43;;;1.10;;
9413;SDS011;4746;35.664;139.738;2022-12-29T14:15:55;1.77;;;1.37;;
9413;SDS011;4746;35.664;139.738;2022-12-29T14:18:26;1.50;;;1.40;;
9413;SDS011;4746;35.664;139.738;2022-12-29T14:23:44;1.73;;;1.27;;
9413;SDS011;4746;35.664;139.738;2022-12-29T14:26:33;1.40;;;1.30;;
9413;SDS011;4746;35.664;139.738;2022-12-29T14:31:51;1.37;;;1.27;;
9413;SDS011;4746;35.664;139.738;2022-12-29T14:37:22;4.27;;;1.30;;
9413;SDS011;4746;35.664;139.738;2022-12-29T14:40:18;1.10;;;1.03;;
9413;SDS011;4746;35.664;139.738;2022-12-29T14:42:53;1.50;;;1.40;;
9413;SDS011;4746;35.664;139.738;2022-12-29T14:45:27;1.60;;;1.47;;
9413;SDS011;4746;35.664;139.738;2022-12-29T14:48:02;1.20;;;1.20;;
9413;SDS011;4746;35.664;139.738;2022-12-29T14:50:50;1.27;;;1.00;;
9413;SDS011;4746;35.664;139.738;2022-12-29T14:56:13;1.27;;;1.27;;
9413;SDS011;4746;35.664;139.738;2022-12-29T14:59:01;1.57;;;1.47;;
9413;SDS011;4746;35.664;139.738;2022-12-29T15:01:47;1.33;;;1.23;;
9413;SDS011;4746;35.664;139.738;2022-12-29T15:04:21;1.30;;;1.20;;
9413;SDS011;4746;35.664;139.738;2022-12-29T15:07:02;1.40;;;1.20;;
9413;SDS011;4746;35.664;139.738;2022-12-29T15:09:37;1.90;;;1.40;;
9413;SDS011;4746;35.664;139.738;2022-12-29T15:12:43;1.70;;;1.60;;
9413;SDS011;4746;35.664;139.738;2022-12-29T15:15:21;1.30;;;1.20;;
9413;SDS011;4746;35.664;139.738;2022-12-29T15:17:52;1.30;;;1.20;;
9413;SDS011;4746;35.664;139.738;2022-12-29T15:20:24;1.50;;;1.40;;
9413;SDS011;4746;35.664;139.738;2022-12-29T15:22:56;1.80;;;1.70;;
9413;SDS011;4746;35.664;139.738;2022-12-29T15:25:29;1.10;;;1.10;;
9413;SDS011;4746;35.664;139.738;2022-12-29T15:28:02;1.60;;;1.50;;
9413;SDS011;4746;35.664;139.738;2022-12-29T15:30:49;1.50;;;1.40;;
9413;SDS011;4746;35.664;139.738;2022-12-29T15:33:29;1.30;;;1.17;;
9413;SDS011;4746;35.664;139.738;2022-12-29T15:36:03;1.60;;;1.33;;
9413;SDS011;4746;35.664;139.738;2022-12-29T15:38:48;1.50;;;1.40;;
9413;SDS011;4746;35.664;139.738;2022-12-29T15:41:31;3.70;;;1.53;;
9413;SDS011;4746;35.664;139.738;2022-12-29T15:47:03;1.33;;;1.33;;
9413;SDS011;4746;35.664;139.738;2022-12-29T15:49:44;1.60;;;1.50;;
9413;SDS011;4746;35.664;139.738;2022-12-29T15:52:21;2.03;;;1.30;;
9413;SDS011;4746;35.664;139.738;2022-12-29T15:54:57;1.20;;;1.20;;
9413;SDS011;4746;35.664;139.738;2022-12-29T15:57:29;1.50;;;1.40;;
9413;SDS011;4746;35.664;139.738;2022-12-29T16:00:24;1.87;;;1.00;;
9413;SDS011;4746;35.664;139.738;2022-12-29T16:02:57;1.70;;;1.60;;
9413;SDS011;4746;35.664;139.738;2022-12-29T16:05:33;1.30;;;1.20;;
9413;SDS011;4746;35.664;139.738;2022-12-29T16:08:15;1.10;;;1.10;;
9413;SDS011;4746;35.664;139.738;2022-12-29T16:10:58;1.73;;;1.63;;
9413;SDS011;4746;35.664;139.738;2022-12-29T16:13:30;1.13;;;1.13;;
9413;SDS011;4746;35.664;139.738;2022-12-29T16:16:14;1.40;;;1.30;;
9413;SDS011;4746;35.664;139.738;2022-12-29T16:18:54;1.70;;;1.10;;
9413;SDS011;4746;35.664;139.738;2022-12-29T16:21:27;1.20;;;1.20;;
9413;SDS011;4746;35.664;139.738;2022-12-29T16:24:05;1.30;;;1.20;;
9413;SDS011;4746;35.664;139.738;2022-12-29T16:26:48;1.20;;;1.20;;
9413;SDS011;4746;35.664;139.738;2022-12-29T16:29:32;1.00;;;1.00;;
9413;SDS011;4746;35.664;139.738;2022-12-29T16:32:01;1.00;;;1.00;;
9413;SDS011;4746;35.664;139.738;2022-12-29T16:35:02;1.27;;;1.17;;
9413;SDS011;4746;35.664;139.738;2022-12-29T16:40:56;1.07;;;1.07;;
9413;SDS011;4746;35.664;139.738;2022-12-29T16:43:34;1.00;;;1.00;;
9413;SDS011;4746;35.664;139.738;2022-12-29T16:46:18;0.90;;;0.90;;
9413;SDS011;4746;35.664;139.738;2022-12-29T16:48:55;0.90;;;0.90;;
9413;SDS011;4746;35.664;139.738;2022-12-29T16:51:33;1.10;;;1.10;;
9413;SDS011;4746;35.664;139.738;2022-12-29T16:54:03;1.07;;;1.07;;
9413;SDS011;4746;35.664;139.738;2022-12-29T16:56:43;1.03;;;0.97;;
9413;SDS011;4746;35.664;139.738;2022-12-29T17:02:19;0.93;;;0.93;;
9413;SDS011;4746;35.664;139.738;2022-12-29T17:04:51;0.87;;;0.87;;
9413;SDS011;4746;35.664;139.738;2022-12-29T17:07:27;1.87;;;0.80;;
9413;SDS011;4746;35.664;139.738;2022-12-29T17:09:55;1.10;;;1.10;;
9413;SDS011;4746;35.664;139.738;2022-12-29T17:12:25;0.90;;;0.90;;
9413;SDS011;4746;35.664;139.738;2022-12-29T17:15:06;1.00;;;1.00;;
9413;SDS011;4746;35.664;139.738;2022-12-29T17:17:41;1.10;;;1.10;;
9413;SDS011;4746;35.664;139.738;2022-12-29T17:22:48;1.13;;;1.03;;
9413;SDS011;4746;35.664;139.738;2022-12-29T17:25:40;0.90;;;0.90;;
9413;SDS011;4746;35.664;139.738;2022-12-29T17:30:47;0.90;;;0.90;;
9413;SDS011;4746;35.664;139.738;2022-12-29T17:33:18;1.17;;;1.07;;
9413;SDS011;4746;35.664;139.738;2022-12-29T17:35:47;0.77;;;0.77;;
9413;SDS011;4746;35.664;139.738;2022-12-29T17:38:19;1.20;;;1.10;;
9413;SDS011;4746;35.664;139.738;2022-12-29T17:41:00;1.50;;;1.00;;
9413;SDS011;4746;35.664;139.738;2022-12-29T17:43:28;1.00;;;1.00;;
9413;SDS011;4746;35.664;139.738;2022-12-29T17:45:56;1.00;;;1.00;;
9413;SDS011;4746;35.664;139.738;2022-12-29T17:48:24;0.80;;;0.80;;
9413;SDS011;4746;35.664;139.738;2022-12-29T17:50:52;1.27;;;1.17;;
9413;SDS011;4746;35.664;139.738;2022-12-29T17:53:23;0.90;;;0.90;;
9413;SDS011;4746;35.664;139.738;2022-12-29T17:55:54;1.47;;;1.37;;
9413;SDS011;4746;35.664;139.738;2022-12-29T17:58:23;1.23;;;1.13;;
9413;SDS011;4746;35.664;139.738;2022-12-29T18:00:56;1.20;;;1.17;;
9413;SDS011;4746;35.664;139.738;2022-12-29T18:03:30;1.10;;;1.10;;
9413;SDS011;4746;35.664;139.738;2022-12-29T18:06:01;1.20;;;1.20;;
9413;SDS011;4746;35.664;139.738;2022-12-29T18:08:39;1.63;;;1.53;;
9413;SDS011;4746;35.664;139.738;2022-12-29T18:11:20;1.10;;;1.10;;
9413;SDS011;4746;35.664;139.738;2022-12-29T18:13:51;1.10;;;1.03;;